createdAt,value
2023-01-21T00:02:24.163Z,0.75
2023-01-21T00:07:46.564Z,1.58
2023-01-21T00:13:09.371Z,0.93
2023-01-21T00:18:35.758Z,3.28
2023-01-21T00:24:00.624Z,1.00
2023-01-21T00:29:24.034Z,1.00
2023-01-21T00:34:46.886Z,1.45
2023-01-21T00:40:09.492Z,1.20
2023-01-21T00:51:09.090Z,1.60
2023-01-21T00:56:31.314Z,1.15
2023-01-21T01:01:54.589Z,0.63
2023-01-21T01:07:17.080Z,0.80
2023-01-21T01:12:39.433Z,1.08
2023-01-21T01:18:01.307Z,1.13
2023-01-21T01:23:23.552Z,1.23
2023-01-21T01:28:46.226Z,1.20
2023-01-21T01:34:08.801Z,0.80
2023-01-21T01:39:31.275Z,1.20
2023-01-21T01:44:59.747Z,1.02
2023-01-21T01:50:22.274Z,0.98
2023-01-21T01:55:44.734Z,1.25
2023-01-21T02:01:07.211Z,1.02
2023-01-21T02:06:29.832Z,1.27
2023-01-21T02:11:52.040Z,1.48
2023-01-21T02:17:27.402Z,1.45
2023-01-21T02:23:06.394Z,1.40
2023-01-21T02:28:49.365Z,1.65
2023-01-21T02:34:37.826Z,0.82
2023-01-21T02:40:26.005Z,1.57
2023-01-21T02:47:05.937Z,0.63
2023-01-21T02:51:50.645Z,0.70
2023-01-21T02:57:17.232Z,1.27
2023-01-21T03:02:56.396Z,0.70
2023-01-21T03:08:22.814Z,1.93
2023-01-21T03:14:25.095Z,0.70
2023-01-21T03:20:03.585Z,0.90
2023-01-21T03:25:30.324Z,0.73
2023-01-21T03:30:59.285Z,1.98
2023-01-21T03:36:37.074Z,1.63
2023-01-21T03:42:04.393Z,1.83
2023-01-21T03:47:42.844Z,1.00
2023-01-21T03:53:05.612Z,1.40
2023-01-21T03:58:28.814Z,1.70
2023-01-21T04:03:50.910Z,0.80
2023-01-21T04:09:12.975Z,0.70
2023-01-21T04:14:35.077Z,0.75
2023-01-21T04:19:57.158Z,0.90
2023-01-21T04:25:21.614Z,1.10
2023-01-21T04:30:43.718Z,1.45
2023-01-21T04:36:05.939Z,0.77
2023-01-21T04:41:27.986Z,1.20
2023-01-21T04:46:50.195Z,1.00
2023-01-21T04:52:12.715Z,1.10
2023-01-21T04:57:35.314Z,1.60
2023-01-21T05:02:57.832Z,0.95
2023-01-21T05:08:20.393Z,0.80
2023-01-21T05:13:48.264Z,1.25
2023-01-21T05:19:10.675Z,1.20
2023-01-21T05:24:33.033Z,1.52
2023-01-21T05:29:59.408Z,1.27
2023-01-21T05:35:23.897Z,0.70
2023-01-21T05:40:46.077Z,1.00
2023-01-21T05:46:16.585Z,1.43
2023-01-21T05:51:41.225Z,1.42
2023-01-21T05:57:05.573Z,0.80
2023-01-21T06:02:30.868Z,1.23
2023-01-21T06:07:53.184Z,1.27
2023-01-21T06:13:16.453Z,1.45
2023-01-21T06:18:39.232Z,1.80
2023-01-21T06:24:02.254Z,1.70
2023-01-21T06:29:24.504Z,0.80
2023-01-21T06:34:46.822Z,0.90
2023-01-21T06:40:09.812Z,1.15
2023-01-21T06:45:32.273Z,1.00
2023-01-21T06:50:53.986Z,0.90
2023-01-21T06:56:15.995Z,0.95
2023-01-21T07:01:38.189Z,0.88
2023-01-21T07:07:00.453Z,0.80
2023-01-21T07:12:22.406Z,0.70
2023-01-21T07:17:46.186Z,0.98
2023-01-21T07:23:08.965Z,1.65
2023-01-21T07:28:31.317Z,1.48
2023-01-21T07:33:54.054Z,1.13
2023-01-21T07:39:15.935Z,0.90
2023-01-21T07:44:40.513Z,1.10
2023-01-21T07:50:05.586Z,1.10
2023-01-21T07:55:28.994Z,1.25
2023-01-21T08:00:59.608Z,1.15
2023-01-21T08:06:22.280Z,2.67
2023-01-21T08:11:47.615Z,1.67
2023-01-21T08:17:09.687Z,1.45
2023-01-21T08:22:32.064Z,1.42
2023-01-21T08:28:00.593Z,1.67
2023-01-21T08:33:28.276Z,1.23
2023-01-21T08:38:59.253Z,0.80
2023-01-21T08:44:21.356Z,1.88
2023-01-21T08:49:43.607Z,1.23
2023-01-21T08:55:06.295Z,1.67
2023-01-21T09:00:31.492Z,1.52
2023-01-21T09:05:53.564Z,1.52
2023-01-21T09:11:17.158Z,2.33
2023-01-21T09:16:39.675Z,1.70
2023-01-21T09:22:01.611Z,1.70
2023-01-21T09:27:27.821Z,3.13
2023-01-21T09:32:50.007Z,1.40
2023-01-21T09:38:13.293Z,1.85
2023-01-21T09:43:41.150Z,1.00
2023-01-21T09:49:06.272Z,1.55
2023-01-21T09:54:32.566Z,1.60
2023-01-21T10:00:24.492Z,1.95
2023-01-21T10:06:02.172Z,2.03
2023-01-21T10:11:30.927Z,1.10
2023-01-21T10:17:16.395Z,2.08
2023-01-21T10:22:43.445Z,1.38
2023-01-21T10:28:17.689Z,0.95
2023-01-21T10:33:39.545Z,1.60
2023-01-21T10:39:23.032Z,0.90
2023-01-21T10:45:00.580Z,2.75
2023-01-21T10:50:28.614Z,2.03
2023-01-21T10:56:20.627Z,1.80
2023-01-21T11:01:52.054Z,2.17
2023-01-21T11:07:18.499Z,2.00
2023-01-21T11:12:41.551Z,2.47
2023-01-21T11:18:27.968Z,1.90
2023-01-21T11:24:05.572Z,1.60
2023-01-21T11:29:39.641Z,1.90
2023-01-21T11:35:10.909Z,2.03
2023-01-21T11:40:33.114Z,2.83
2023-01-21T11:45:57.663Z,0.80
2023-01-21T11:51:20.829Z,1.17
2023-01-21T11:56:53.252Z,0.80
2023-01-21T12:02:32.043Z,0.70
2023-01-21T12:07:55.640Z,1.05
2023-01-21T12:13:58.462Z,0.90
2023-01-21T12:19:29.846Z,1.08
2023-01-21T12:25:14.812Z,2.08
2023-01-21T12:30:50.017Z,2.38
2023-01-21T12:36:19.132Z,1.10
2023-01-21T12:41:44.726Z,1.40
2023-01-21T12:47:25.843Z,1.63
2023-01-21T12:52:53.728Z,2.03
2023-01-21T12:58:30.754Z,2.20
2023-01-21T13:04:34.200Z,1.60
2023-01-21T13:10:21.130Z,2.10
2023-01-21T13:15:48.712Z,3.08
2023-01-21T13:21:32.911Z,3.08
2023-01-21T13:27:13.236Z,3.22
2023-01-21T13:32:40.943Z,4.50
2023-01-21T13:38:28.192Z,6.65
2023-01-21T13:44:11.595Z,5.43
2023-01-21T13:50:11.685Z,4.60
2023-01-21T13:55:54.385Z,3.97
2023-01-21T14:01:23.919Z,4.38
2023-01-21T14:13:01.012Z,4.32
2023-01-21T14:18:48.748Z,5.00
2023-01-21T14:24:46.602Z,3.60
2023-01-21T14:30:25.143Z,4.20
2023-01-21T14:36:16.405Z,3.03
2023-01-21T14:42:03.571Z,2.97
2023-01-21T14:47:31.465Z,4.30
2023-01-21T14:52:53.504Z,4.00
2023-01-21T14:58:25.580Z,4.60
2023-01-21T15:03:50.799Z,3.42
2023-01-21T15:09:23.666Z,4.90
2023-01-21T15:14:48.967Z,3.85
2023-01-21T15:20:50.363Z,3.92
2023-01-21T15:26:15.164Z,3.38
2023-01-21T15:31:45.218Z,2.80
2023-01-21T15:37:17.825Z,3.22
2023-01-21T15:42:42.686Z,3.53
2023-01-21T15:48:14.056Z,2.63
2023-01-21T15:54:06.473Z,3.58
2023-01-21T15:59:41.404Z,4.03
2023-01-21T16:05:17.695Z,4.10
2023-01-21T16:11:10.864Z,3.58
2023-01-21T16:16:35.932Z,4.40
2023-01-21T16:22:01.804Z,4.18
2023-01-21T16:27:28.832Z,3.08
2023-01-21T16:33:17.067Z,3.50
2023-01-21T16:38:39.305Z,3.38
2023-01-21T16:44:04.959Z,3.92
2023-01-21T16:49:27.634Z,3.42
2023-01-21T16:55:18.424Z,4.10
2023-01-21T17:00:41.663Z,3.67
2023-01-21T17:06:10.465Z,3.85
2023-01-21T17:11:34.693Z,3.08
2023-01-21T17:17:01.154Z,2.90
2023-01-21T17:22:25.859Z,2.67
2023-01-21T17:27:49.015Z,3.00
2023-01-21T17:33:28.572Z,2.97
2023-01-21T17:38:53.576Z,2.77
2023-01-21T17:44:22.278Z,3.72
2023-01-21T17:49:46.027Z,3.08
2023-01-21T17:55:15.178Z,2.70
2023-01-21T18:00:46.915Z,2.87
2023-01-21T18:06:18.163Z,2.15
2023-01-21T18:11:40.453Z,3.63
2023-01-21T18:17:02.286Z,3.25
2023-01-21T18:22:30.812Z,2.97
2023-01-21T18:27:55.641Z,2.90
2023-01-21T18:33:19.006Z,3.22
2023-01-21T18:38:41.076Z,2.80
2023-01-21T18:44:03.078Z,3.40
2023-01-21T18:49:25.601Z,2.55
2023-01-21T18:54:47.517Z,1.60
2023-01-21T19:00:32.649Z,1.92
2023-01-21T19:05:54.693Z,1.45
2023-01-21T19:11:17.254Z,2.65
2023-01-21T19:16:40.787Z,2.47
2023-01-21T19:22:02.666Z,2.70
2023-01-21T19:27:31.295Z,2.83
2023-01-21T19:32:54.411Z,2.63
2023-01-21T19:38:20.952Z,2.92
2023-01-21T19:43:43.214Z,3.78
2023-01-21T19:49:20.565Z,2.58
2023-01-21T19:54:43.257Z,3.10
2023-01-21T20:00:14.804Z,2.47
2023-01-21T20:05:36.994Z,2.72
2023-01-21T20:10:59.485Z,2.58
2023-01-21T20:16:31.821Z,3.15
2023-01-21T20:22:08.955Z,2.72
2023-01-21T20:27:34.794Z,1.65
2023-01-21T20:32:57.897Z,2.42
2023-01-21T20:38:35.055Z,2.30
2023-01-21T20:44:25.664Z,3.25
2023-01-21T20:49:51.694Z,3.05
2023-01-21T20:55:15.139Z,3.17
2023-01-21T21:01:26.144Z,3.00
2023-01-21T21:07:38.987Z,3.92
2023-01-21T21:13:02.005Z,3.97
2023-01-21T21:18:24.504Z,3.70
2023-01-21T21:23:51.667Z,3.00
2023-01-21T21:29:17.089Z,1.85
2023-01-21T21:34:45.114Z,3.53
2023-01-21T21:40:13.446Z,2.63
2023-01-21T21:45:44.078Z,2.33
2023-01-21T21:51:12.170Z,3.63
2023-01-21T21:56:34.593Z,3.30
2023-01-21T22:01:56.579Z,2.33
2023-01-21T22:07:18.726Z,4.90
2023-01-21T22:12:40.844Z,3.25
2023-01-21T22:18:03.024Z,2.78
2023-01-21T22:23:25.625Z,3.72
2023-01-21T22:28:48.404Z,2.80
2023-01-21T22:34:11.890Z,1.95
2023-01-21T22:39:34.069Z,2.97
2023-01-21T22:44:55.947Z,2.90
2023-01-21T22:50:22.868Z,2.75
2023-01-21T22:55:59.399Z,2.10
2023-01-21T23:01:25.126Z,1.48
2023-01-21T23:06:55.624Z,3.10
2023-01-21T23:12:21.787Z,2.28
2023-01-21T23:17:51.753Z,2.45
2023-01-21T23:23:28.284Z,4.03
2023-01-21T23:28:56.459Z,3.10
2023-01-21T23:34:28.364Z,4.00
2023-01-21T23:39:57.143Z,2.33
2023-01-21T23:45:22.560Z,3.83
2023-01-21T23:50:47.245Z,1.45
2023-01-21T23:56:20.631Z,4.18
